Time;durP1;ratioP1;P1;durP2;ratioP2;P2;SDS_P1;SDS_P2;PMS_P1;PMS_P2;Temp;Humidity;BMP_temperature;BMP_pressure;BME280_temperature;BME280_humidity;BME280_pressure;Samples;Min_cycle;Max_cycle;Signal;HPM_P1;HPM_P2
2023/05/27 00:01:59;;;;;;;0.32;0.32;;;18.90;99.90;;;;;;5032522;28;20117;-88
2023/05/27 00:04:25;;;;;;;0.17;0.17;;;18.90;99.90;;;;;;5014829;28;20035;-87
2023/05/27 00:06:50;;;;;;;0.52;0.20;;;19.10;99.90;;;;;;5032383;28;20029;-88
2023/05/27 00:09:16;;;;;;;0.00;0.00;;;19.20;99.90;;;;;;5032075;28;20030;-87
2023/05/27 00:11:41;;;;;;;0.60;0.40;;;19.20;99.90;;;;;;5014082;28;20025;-88
2023/05/27 00:14:07;;;;;;;0.52;0.45;;;18.90;99.90;;;;;;5032215;28;20041;-88
2023/05/27 00:16:35;;;;;;;0.20;0.20;;;18.90;99.90;;;;;;5032030;28;20026;-88
2023/05/27 00:19:01;;;;;;;0.10;0.10;;;19.00;99.90;;;;;;5032256;28;20470;-88
2023/05/27 00:21:27;;;;;;;0.20;0.20;;;19.10;99.90;;;;;;5014068;28;20022;-87
2023/05/27 00:23:52;;;;;;;0.10;0.10;;;19.00;99.90;;;;;;5033949;28;20040;-88
2023/05/27 00:26:18;;;;;;;0.45;0.45;;;18.70;99.90;;;;;;5053416;28;20099;-87
2023/05/27 00:28:44;;;;;;;0.10;0.10;;;18.80;99.90;;;;;;5038287;28;20032;-87
2023/05/27 00:31:09;;;;;;;0.40;0.40;;;19.00;99.90;;;;;;5055528;28;20056;-88
2023/05/27 00:33:35;;;;;;;0.20;0.20;;;18.80;99.90;;;;;;5055837;28;20112;-87
2023/05/27 00:36:01;;;;;;;0.65;0.65;;;18.80;99.90;;;;;;5055803;28;20029;-87
2023/05/27 00:38:26;;;;;;;0.85;0.70;;;18.60;99.90;;;;;;5055759;28;20021;-89
2023/05/27 00:40:53;;;;;;;0.60;0.28;;;18.60;99.90;;;;;;5037674;28;20060;-87
2023/05/27 00:43:19;;;;;;;0.22;0.22;;;18.50;99.90;;;;;;5055309;28;20051;-88
2023/05/27 00:45:45;;;;;;;0.30;0.30;;;18.60;99.90;;;;;;5038349;28;20100;-87
2023/05/27 00:48:11;;;;;;;0.20;0.20;;;18.70;99.90;;;;;;5055655;28;20033;-88
2023/05/27 00:50:36;;;;;;;1.65;0.57;;;18.60;99.90;;;;;;5055631;28;20029;-87
2023/05/27 00:53:03;;;;;;;0.10;0.10;;;18.30;99.90;;;;;;5055791;28;20170;-88
2023/05/27 00:55:28;;;;;;;0.43;0.40;;;18.40;99.90;;;;;;5017535;28;20037;-88
2023/05/27 00:57:54;;;;;;;0.32;0.32;;;18.30;99.90;;;;;;5035270;28;20025;-88
2023/05/27 01:00:23;;;;;;;0.08;0.08;;;18.30;99.90;;;;;;5017959;28;20092;-87
2023/05/27 01:02:50;;;;;;;0.50;0.35;;;18.40;99.90;;;;;;5035488;28;20017;-88
2023/05/27 01:05:18;;;;;;;0.15;0.15;;;18.20;99.90;;;;;;5017600;28;20123;-88
2023/05/27 01:07:49;;;;;;;0.28;0.28;;;18.30;99.90;;;;;;5017709;28;20466;-88
2023/05/27 01:10:27;;;;;;;0.20;0.20;;;18.30;99.90;;;;;;5035311;28;20036;-88
2023/05/27 01:13:01;;;;;;;0.40;0.28;;;18.10;99.90;;;;;;5035414;28;20052;-87
2023/05/27 01:15:30;;;;;;;1.38;0.47;;;18.20;99.90;;;;;;5017494;28;20025;-88
2023/05/27 01:17:59;;;;;;;0.98;0.75;;;18.20;99.90;;;;;;5035045;28;20029;-88
2023/05/27 01:20:25;;;;;;;0.38;0.30;;;18.30;99.90;;;;;;5017362;28;20032;-88
2023/05/27 01:22:52;;;;;;;3.95;0.43;;;18.20;99.90;;;;;;5041214;28;20504;-87
2023/05/27 01:25:21;;;;;;;0.63;0.63;;;18.30;99.90;;;;;;5054504;28;20032;-88
2023/05/27 01:27:47;;;;;;;0.30;0.30;;;18.20;99.90;;;;;;5037294;28;20025;-88
2023/05/27 01:30:12;;;;;;;0.17;0.17;;;18.00;99.90;;;;;;5037080;28;20025;-87
2023/05/27 01:32:45;;;;;;;0.68;0.20;;;18.00;99.90;;;;;;5036702;28;20033;-87
2023/05/27 01:35:55;;;;;;;0.30;0.20;;;18.20;99.90;;;;;;5036849;28;20028;-88
2023/05/27 01:38:24;;;;;;;0.00;0.00;;;18.00;99.90;;;;;;4992367;28;20129;-87
2023/05/27 01:40:51;;;;;;;0.20;0.20;;;18.20;99.90;;;;;;4976875;28;20434;-88
2023/05/27 01:43:18;;;;;;;0.17;0.17;;;18.20;99.90;;;;;;4976913;28;20030;-88
2023/05/27 01:45:44;;;;;;;0.35;0.30;;;17.90;99.90;;;;;;4977021;28;20487;-88
2023/05/27 01:48:09;;;;;;;1.55;0.95;;;17.60;99.90;;;;;;4993615;28;20038;-88
2023/05/27 01:50:36;;;;;;;1.00;0.52;;;17.60;99.90;;;;;;4976739;28;20030;-87
2023/05/27 01:53:03;;;;;;;0.32;0.32;;;17.60;99.90;;;;;;4993064;28;20134;-88
2023/05/27 01:55:30;;;;;;;0.30;0.30;;;17.70;99.90;;;;;;4975245;28;20046;-88
2023/05/27 01:57:56;;;;;;;1.10;0.40;;;17.70;99.90;;;;;;4973666;28;20046;-88
2023/05/27 02:00:22;;;;;;;0.38;0.38;;;17.60;99.90;;;;;;4973546;28;20047;-88
2023/05/27 02:02:48;;;;;;;0.70;0.32;;;17.70;99.90;;;;;;4973512;28;20037;-87
2023/05/27 02:05:13;;;;;;;0.03;0.03;;;17.80;99.90;;;;;;4957299;28;20117;-88
2023/05/27 02:07:39;;;;;;;0.10;0.10;;;17.70;99.90;;;;;;4973275;28;20446;-87
2023/05/27 02:10:05;;;;;;;0.22;0.22;;;17.70;99.90;;;;;;4973237;28;20034;-88
2023/05/27 02:12:31;;;;;;;0.57;0.28;;;17.60;99.90;;;;;;4973517;28;20115;-88
2023/05/27 02:14:56;;;;;;;0.30;0.30;;;17.50;99.90;;;;;;5029780;28;20123;-87
2023/05/27 02:17:24;;;;;;;0.10;0.10;;;17.70;99.90;;;;;;5016660;28;20385;-88
2023/05/27 02:19:50;;;;;;;1.00;0.38;;;17.80;99.90;;;;;;5016138;28;20029;-89
2023/05/27 02:22:16;;;;;;;0.47;0.47;;;17.60;99.90;;;;;;5015928;28;20429;-87
2023/05/27 02:24:42;;;;;;;1.60;0.90;;;17.50;99.90;;;;;;5028309;28;20024;-87
2023/05/27 02:27:08;;;;;;;0.30;0.30;;;17.50;99.90;;;;;;5036091;28;20029;-88
2023/05/27 02:29:33;;;;;;;1.50;0.65;;;17.60;99.90;;;;;;5036205;28;20025;-87
2023/05/27 02:31:59;;;;;;;0.90;0.30;;;17.60;99.90;;;;;;5036260;28;20063;-88
2023/05/27 02:34:25;;;;;;;0.10;0.10;;;17.50;99.90;;;;;;5053572;28;20074;-88
2023/05/27 02:36:51;;;;;;;0.70;0.32;;;17.40;99.90;;;;;;5052197;28;20061;-88
2023/05/27 02:39:17;;;;;;;0.85;0.28;;;17.40;99.90;;;;;;5035730;28;20573;-88
2023/05/27 02:41:43;;;;;;;0.00;0.00;;;17.40;99.90;;;;;;5035709;28;20121;-88
2023/05/27 02:44:08;;;;;;;0.35;0.35;;;17.50;99.90;;;;;;5035673;28;20039;-88
2023/05/27 02:46:34;;;;;;;0.35;0.22;;;17.60;99.90;;;;;;5053996;28;20055;-88
2023/05/27 02:49:00;;;;;;;0.20;0.20;;;17.60;99.90;;;;;;5052569;28;20095;-88
2023/05/27 02:51:25;;;;;;;0.10;0.10;;;17.50;99.90;;;;;;5052682;28;20021;-88
2023/05/27 02:53:51;;;;;;;0.22;0.20;;;17.40;99.90;;;;;;5049892;28;20041;-88
2023/05/27 02:56:17;;;;;;;0.30;0.30;;;17.40;99.90;;;;;;5016114;28;20400;-87
2023/05/27 02:58:43;;;;;;;0.52;0.30;;;17.30;99.90;;;;;;5015790;28;20110;-88
2023/05/27 03:01:09;;;;;;;0.10;0.10;;;17.30;99.90;;;;;;5015775;28;20021;-88
2023/05/27 03:03:35;;;;;;;0.77;0.70;;;17.30;99.90;;;;;;5015669;28;20026;-88
2023/05/27 03:06:00;;;;;;;0.20;0.20;;;17.30;99.90;;;;;;5015325;28;20021;-88
2023/05/27 03:08:26;;;;;;;0.25;0.25;;;17.20;99.90;;;;;;5033396;28;20117;-88
2023/05/27 03:10:52;;;;;;;0.10;0.10;;;17.20;99.90;;;;;;5033218;28;20109;-87
2023/05/27 03:13:17;;;;;;;0.73;0.55;;;17.10;99.90;;;;;;5033355;28;20536;-88
2023/05/27 03:15:43;;;;;;;0.43;0.22;;;16.90;99.90;;;;;;5015641;28;20029;-88
2023/05/27 03:18:09;;;;;;;0.20;0.20;;;16.80;99.90;;;;;;5015586;28;20083;-88
2023/05/27 03:20:34;;;;;;;0.43;0.43;;;16.90;99.90;;;;;;5015191;28;20613;-88
2023/05/27 03:23:00;;;;;;;0.13;0.13;;;17.00;99.90;;;;;;5015529;28;20025;-88
2023/05/27 03:25:26;;;;;;;0.88;0.30;;;16.90;99.90;;;;;;5030555;28;20025;-88
2023/05/27 03:27:53;;;;;;;0.30;0.30;;;16.70;99.90;;;;;;5035135;28;20078;-88
2023/05/27 03:30:19;;;;;;;0.43;0.20;;;16.70;99.90;;;;;;5035005;28;20413;-88
2023/05/27 03:32:44;;;;;;;0.75;0.52;;;16.60;99.90;;;;;;5035217;28;20032;-88
2023/05/27 03:35:10;;;;;;;0.35;0.35;;;16.60;99.90;;;;;;5052463;28;20051;-89
2023/05/27 03:37:36;;;;;;;1.25;0.90;;;16.60;99.90;;;;;;5034814;28;20108;-87
2023/05/27 03:40:03;;;;;;;0.43;0.43;;;16.50;99.90;;;;;;5052791;28;20497;-88
2023/05/27 03:42:28;;;;;;;0.20;0.20;;;16.60;99.90;;;;;;5020644;28;20064;-89
2023/05/27 03:44:54;;;;;;;0.55;0.50;;;16.60;99.90;;;;;;5015201;28;20030;-88
2023/05/27 03:47:20;;;;;;;0.10;0.10;;;16.70;99.90;;;;;;5015197;28;20021;-88
2023/05/27 03:49:46;;;;;;;0.25;0.25;;;16.70;99.90;;;;;;5032404;28;20064;-89
2023/05/27 03:52:12;;;;;;;0.28;0.28;;;16.70;99.90;;;;;;5033110;28;20022;-88
2023/05/27 03:54:37;;;;;;;0.28;0.28;;;16.60;99.90;;;;;;5019204;28;20044;-88
2023/05/27 03:57:03;;;;;;;0.63;0.63;;;16.60;99.90;;;;;;5052740;28;20017;-88
2023/05/27 03:59:29;;;;;;;0.10;0.10;;;16.60;99.90;;;;;;5034570;28;20052;-88
2023/05/27 04:01:55;;;;;;;2.00;0.47;;;16.70;99.90;;;;;;5037379;28;20021;-87
2023/05/27 04:04:20;;;;;;;0.55;0.55;;;16.70;99.90;;;;;;5056243;28;20039;-87
2023/05/27 04:06:46;;;;;;;0.20;0.20;;;16.50;99.90;;;;;;5057076;28;20525;-88
2023/05/27 04:09:12;;;;;;;0.63;0.63;;;16.50;99.90;;;;;;5038538;28;20029;-89
2023/05/27 04:11:37;;;;;;;0.10;0.10;;;16.50;99.90;;;;;;5038765;28;20029;-88
2023/05/27 04:14:06;;;;;;;0.95;0.47;;;16.60;99.90;;;;;;5056455;28;20515;-88
2023/05/27 04:16:33;;;;;;;0.45;0.45;;;16.50;99.90;;;;;;5038508;28;20025;-88
2023/05/27 04:19:02;;;;;;;1.20;0.32;;;16.40;99.90;;;;;;5056227;28;20028;-88
2023/05/27 04:21:28;;;;;;;1.00;0.47;;;16.60;99.90;;;;;;5056337;28;20028;-88
2023/05/27 04:23:54;;;;;;;0.28;0.28;;;16.60;99.90;;;;;;5038740;28;20407;-88
2023/05/27 04:26:20;;;;;;;0.28;0.28;;;16.70;99.90;;;;;;5024952;28;20029;-88
2023/05/27 04:28:46;;;;;;;0.30;0.30;;;16.60;99.90;;;;;;5018356;28;20177;-88
2023/05/27 04:31:12;;;;;;;0.20;0.20;;;16.60;99.90;;;;;;5036237;28;20501;-88
2023/05/27 04:33:45;;;;;;;0.40;0.40;;;16.60;99.90;;;;;;5018339;28;20155;-89
2023/05/27 04:36:10;;;;;;;0.40;0.40;;;16.30;99.90;;;;;;5018548;28;20026;-88
2023/05/27 04:38:36;;;;;;;0.65;0.57;;;16.30;99.90;;;;;;5018440;28;20037;-88
2023/05/27 04:41:03;;;;;;;0.20;0.10;;;16.30;99.90;;;;;;5038660;28;20497;-88
2023/05/27 04:43:29;;;;;;;0.47;0.32;;;16.40;99.90;;;;;;5055738;28;20029;-88
2023/05/27 04:45:59;;;;;;;0.35;0.35;;;16.30;99.90;;;;;;5055957;28;20025;-88
2023/05/27 04:48:25;;;;;;;0.10;0.10;;;16.50;99.90;;;;;;5037890;28;20449;-88
2023/05/27 04:50:53;;;;;;;0.68;0.68;;;16.50;99.90;;;;;;5038276;28;20053;-88
2023/05/27 04:53:19;;;;;;;0.63;0.63;;;16.60;99.90;;;;;;5038395;28;20229;-88
2023/05/27 04:55:45;;;;;;;0.57;0.52;;;16.20;99.90;;;;;;5055305;28;20087;-88
2023/05/27 04:58:12;;;;;;;0.20;0.20;;;16.40;99.90;;;;;;5037676;28;20063;-88
2023/05/27 05:00:49;;;;;;;0.17;0.17;;;16.60;99.90;;;;;;5055738;28;20036;-88
2023/05/27 05:03:22;;;;;;;0.28;0.28;;;16.50;99.90;;;;;;5037537;28;20031;-88
2023/05/27 05:05:52;;;;;;;0.13;0.13;;;16.30;99.90;;;;;;5055472;28;20025;-88
2023/05/27 05:08:19;;;;;;;0.57;0.57;;;16.50;99.90;;;;;;5055828;28;20131;-87
2023/05/27 05:10:47;;;;;;;0.20;0.20;;;16.80;99.90;;;;;;5055558;28;20032;-88
2023/05/27 05:13:13;;;;;;;0.60;0.30;;;16.70;99.90;;;;;;5036453;28;20120;-87
2023/05/27 05:15:40;;;;;;;0.17;0.17;;;16.80;99.90;;;;;;5055289;28;20524;-88
2023/05/27 05:18:05;;;;;;;0.57;0.35;;;16.90;99.90;;;;;;5054856;28;20043;-88
2023/05/27 05:20:31;;;;;;;0.20;0.20;;;16.60;99.90;;;;;;5055017;28;20025;-88
2023/05/27 05:22:58;;;;;;;0.20;0.20;;;16.50;99.90;;;;;;5055602;28;20029;-88
2023/05/27 05:25:23;;;;;;;0.98;0.50;;;16.40;99.90;;;;;;5037281;28;20040;-88
2023/05/27 05:27:49;;;;;;;1.17;0.68;;;16.60;99.90;;;;;;5035415;28;20034;-89
2023/05/27 05:30:15;;;;;;;0.70;0.70;;;16.60;99.90;;;;;;5034904;28;20065;-88
2023/05/27 05:32:41;;;;;;;0.77;0.77;;;16.50;99.90;;;;;;5017312;28;20072;-88
2023/05/27 05:35:06;;;;;;;1.10;0.80;;;16.60;99.90;;;;;;5017408;28;20025;-88
2023/05/27 05:37:32;;;;;;;0.50;0.50;;;16.60;99.90;;;;;;5034741;28;20025;-88
2023/05/27 05:39:58;;;;;;;0.20;0.20;;;17.00;99.90;;;;;;5034982;28;20029;-88
2023/05/27 05:42:24;;;;;;;0.60;0.45;;;16.70;99.90;;;;;;5031100;28;20501;-88
2023/05/27 05:44:52;;;;;;;0.22;0.22;;;16.60;99.90;;;;;;5036551;28;20029;-88
2023/05/27 05:47:17;;;;;;;0.40;0.40;;;16.90;99.90;;;;;;5037082;28;20017;-88
2023/05/27 05:49:43;;;;;;;2.88;0.68;;;17.10;99.90;;;;;;5054785;28;20021;-87
2023/05/27 05:52:09;;;;;;;0.90;0.45;;;17.10;99.90;;;;;;5055007;28;20029;-88
2023/05/27 05:54:35;;;;;;;3.22;0.80;;;17.30;99.90;;;;;;5054336;28;20155;-88
2023/05/27 05:57:01;;;;;;;0.30;0.30;;;17.30;99.90;;;;;;5038826;28;20381;-88
2023/05/27 05:59:27;;;;;;;3.00;1.42;;;17.40;99.90;;;;;;5033868;28;20574;-88
2023/05/27 06:01:53;;;;;;;0.25;0.20;;;17.40;99.90;;;;;;5034248;28;20047;-88
2023/05/27 06:04:18;;;;;;;0.63;0.60;;;17.30;99.90;;;;;;5016728;28;20017;-88
2023/05/27 06:06:44;;;;;;;0.60;0.50;;;17.50;99.90;;;;;;5034356;28;20492;-87
2023/05/27 06:09:10;;;;;;;0.30;0.30;;;17.70;99.90;;;;;;5034202;28;20107;-88
2023/05/27 06:11:35;;;;;;;0.25;0.25;;;17.80;99.90;;;;;;5034386;28;20022;-88
2023/05/27 06:14:01;;;;;;;0.00;0.00;;;17.90;99.90;;;;;;5016432;28;20034;-88
2023/05/27 06:16:28;;;;;;;0.45;0.45;;;17.90;99.90;;;;;;5034320;28;20048;-88
2023/05/27 06:18:53;;;;;;;0.43;0.43;;;18.00;99.90;;;;;;5034358;28;20029;-88
2023/05/27 06:21:20;;;;;;;0.30;0.30;;;18.00;99.90;;;;;;5033845;28;20032;-87
2023/05/27 06:23:45;;;;;;;0.10;0.10;;;18.30;99.90;;;;;;5033669;28;20449;-88
2023/05/27 06:26:11;;;;;;;0.13;0.13;;;18.50;99.90;;;;;;5016247;28;20018;-88
2023/05/27 06:28:36;;;;;;;0.80;0.30;;;18.50;99.90;;;;;;5049289;28;20037;-88
2023/05/27 06:31:02;;;;;;;0.50;0.20;;;18.40;99.90;;;;;;5053767;28;20028;-88
2023/05/27 06:33:28;;;;;;;0.10;0.10;;;18.40;99.90;;;;;;5053741;28;20045;-88
2023/05/27 06:35:53;;;;;;;1.30;0.68;;;18.50;99.90;;;;;;5053724;28;20060;-87
2023/05/27 06:38:19;;;;;;;0.40;0.40;;;18.60;99.90;;;;;;5053685;28;20041;-87
2023/05/27 06:40:45;;;;;;;0.30;0.30;;;18.60;99.90;;;;;;5053384;28;20028;-87
2023/05/27 06:43:10;;;;;;;1.33;0.57;;;18.70;99.90;;;;;;5053161;28;20043;-88
2023/05/27 06:45:36;;;;;;;0.50;0.50;;;18.80;99.90;;;;;;5036130;28;20485;-90
2023/05/27 06:48:01;;;;;;;0.52;0.50;;;18.90;99.90;;;;;;5053467;28;20028;-90
2023/05/27 06:50:27;;;;;;;0.20;0.20;;;18.90;99.90;;;;;;5053722;28;20048;-90
2023/05/27 06:52:53;;;;;;;0.30;0.30;;;19.00;99.90;;;;;;5053539;28;20052;-89
2023/05/27 06:55:18;;;;;;;0.20;0.20;;;19.00;99.90;;;;;;5035558;28;20071;-89
2023/05/27 06:57:44;;;;;;;0.20;0.20;;;19.10;99.90;;;;;;5031656;28;20032;-90
2023/05/27 07:00:10;;;;;;;0.10;0.10;;;19.20;99.90;;;;;;5033144;28;20076;-90
2023/05/27 07:02:36;;;;;;;0.65;0.65;;;19.20;99.90;;;;;;5033109;28;20029;-90
2023/05/27 07:05:02;;;;;;;0.30;0.30;;;19.20;99.90;;;;;;5033076;28;20030;-89
2023/05/27 07:07:27;;;;;;;0.13;0.13;;;19.30;99.90;;;;;;5033528;28;20048;-88
2023/05/27 07:09:53;;;;;;;0.28;0.20;;;19.30;99.90;;;;;;5031732;28;20120;-89
2023/05/27 07:12:20;;;;;;;0.20;0.20;;;19.50;99.90;;;;;;5032496;28;20025;-90
2023/05/27 07:14:46;;;;;;;0.17;0.17;;;19.50;99.90;;;;;;5033224;28;20100;-90
2023/05/27 07:17:11;;;;;;;0.65;0.40;;;19.50;99.90;;;;;;5032933;28;20382;-90
2023/05/27 07:19:37;;;;;;;0.57;0.57;;;19.40;99.90;;;;;;5033130;28;20470;-90
2023/05/27 07:22:03;;;;;;;0.40;0.40;;;19.50;99.90;;;;;;5031586;28;20108;-89
2023/05/27 07:24:29;;;;;;;0.28;0.28;;;19.60;99.90;;;;;;5032825;28;20561;-90
2023/05/27 07:26:55;;;;;;;0.80;0.28;;;19.60;99.90;;;;;;5032717;28;20037;-89
2023/05/27 07:29:20;;;;;;;0.20;0.20;;;19.60;99.90;;;;;;5052600;28;20025;-89
2023/05/27 07:31:47;;;;;;;0.40;0.40;;;19.70;99.90;;;;;;5034606;28;20057;-90
2023/05/27 07:34:12;;;;;;;1.17;0.80;;;19.80;99.90;;;;;;5052522;28;20025;-90
2023/05/27 07:36:38;;;;;;;0.20;0.20;;;19.90;99.90;;;;;;5052073;28;20398;-90
2023/05/27 07:39:04;;;;;;;0.40;0.40;;;20.10;99.90;;;;;;5034992;28;20013;-89
2023/05/27 07:41:29;;;;;;;0.90;0.57;;;20.10;99.90;;;;;;5051585;28;20400;-89
2023/05/27 07:43:56;;;;;;;0.50;0.50;;;19.90;99.90;;;;;;5034503;28;20040;-90
2023/05/27 07:46:22;;;;;;;0.52;0.35;;;19.90;99.90;;;;;;5034360;28;20025;-90
2023/05/27 07:48:47;;;;;;;0.43;0.43;;;20.00;99.90;;;;;;5052632;28;20079;-90
2023/05/27 07:51:13;;;;;;;0.50;0.22;;;20.00;99.90;;;;;;5051179;28;20396;-87
2023/05/27 07:53:39;;;;;;;0.55;0.45;;;20.00;99.90;;;;;;5050988;28;20048;-85
2023/05/27 07:56:05;;;;;;;0.10;0.10;;;20.20;99.90;;;;;;5049998;28;20067;-86
2023/05/27 07:58:30;;;;;;;1.17;0.63;;;20.30;99.90;;;;;;5038090;28;20075;-86
2023/05/27 08:00:56;;;;;;;1.10;0.75;;;20.30;99.90;;;;;;5051090;28;20025;-86
2023/05/27 08:03:22;;;;;;;1.70;0.63;;;20.30;99.90;;;;;;5052187;28;20528;-86
2023/05/27 08:05:47;;;;;;;0.55;0.55;;;20.40;99.90;;;;;;5051508;28;20029;-86
2023/05/27 08:08:13;;;;;;;0.45;0.43;;;20.50;99.90;;;;;;5051513;28;20056;-85
2023/05/27 08:10:39;;;;;;;0.38;0.38;;;20.50;99.90;;;;;;5051247;28;20028;-85
2023/05/27 08:13:05;;;;;;;0.80;0.52;;;20.60;99.90;;;;;;5051704;28;20390;-85
2023/05/27 08:15:31;;;;;;;0.43;0.43;;;20.70;99.90;;;;;;5051719;28;20413;-85
2023/05/27 08:17:57;;;;;;;0.22;0.22;;;20.80;99.90;;;;;;5052167;28;20025;-85
2023/05/27 08:20:23;;;;;;;0.38;0.38;;;20.80;99.90;;;;;;5051683;28;20033;-86
2023/05/27 08:22:48;;;;;;;0.55;0.55;;;20.80;99.90;;;;;;5051707;28;20036;-86
2023/05/27 08:25:14;;;;;;;0.20;0.20;;;20.90;99.90;;;;;;5051550;28;20040;-85
2023/05/27 08:27:50;;;;;;;0.52;0.52;;;21.00;99.90;;;;;;5051677;28;20021;-85
2023/05/27 08:30:16;;;;;;;0.95;0.55;;;21.10;99.90;;;;;;5031759;28;20032;-86
2023/05/27 08:32:42;;;;;;;0.20;0.20;;;21.10;99.90;;;;;;5032010;28;20021;-85
2023/05/27 08:35:08;;;;;;;0.55;0.52;;;21.20;99.90;;;;;;5031657;28;20369;-84
2023/05/27 08:37:34;;;;;;;0.63;0.63;;;21.30;99.90;;;;;;5031594;28;20032;-86
2023/05/27 08:40:00;;;;;;;0.32;0.32;;;21.40;99.90;;;;;;5031226;28;20042;-85
2023/05/27 08:42:26;;;;;;;1.27;0.70;;;21.40;99.90;;;;;;5045858;28;20052;-86
2023/05/27 08:44:52;;;;;;;0.38;0.38;;;21.50;99.90;;;;;;5051465;28;20107;-86
2023/05/27 08:47:18;;;;;;;0.28;0.28;;;21.60;99.90;;;;;;5053050;28;20088;-86
2023/05/27 08:49:44;;;;;;;1.42;1.33;;;21.70;99.90;;;;;;5055579;28;20021;-85
2023/05/27 08:52:11;;;;;;;0.52;0.52;;;21.80;99.90;;;;;;5054901;28;20032;-85
2023/05/27 08:54:37;;;;;;;0.68;0.68;;;21.90;99.90;;;;;;5054645;28;20503;-85
2023/05/27 08:57:07;;;;;;;0.40;0.40;;;22.00;99.90;;;;;;5055302;28;20104;-85
2023/05/27 08:59:34;;;;;;;0.20;0.20;;;22.10;99.90;;;;;;5037231;28;20576;-86
2023/05/27 09:02:02;;;;;;;0.93;0.43;;;22.40;99.90;;;;;;5017589;28;20447;-85
2023/05/27 09:04:28;;;;;;;0.50;0.50;;;22.40;99.90;;;;;;5040796;28;20041;-89
2023/05/27 09:06:53;;;;;;;0.30;0.30;;;22.30;99.90;;;;;;5054637;28;20029;-89
2023/05/27 09:09:20;;;;;;;0.35;0.35;;;22.20;99.90;;;;;;5054232;28;20086;-89
2023/05/27 09:11:46;;;;;;;1.13;0.55;;;22.40;99.90;;;;;;5036436;28;20037;-88
2023/05/27 09:14:20;;;;;;;0.70;0.45;;;22.30;99.90;;;;;;5044452;28;20041;-88
2023/05/27 09:16:46;;;;;;;0.17;0.17;;;22.40;99.90;;;;;;5044578;28;20055;-85
2023/05/27 09:19:19;;;;;;;0.20;0.20;;;22.60;99.90;;;;;;5054567;28;20029;-85
2023/05/27 09:21:45;;;;;;;0.30;0.30;;;22.60;99.90;;;;;;5053084;28;20025;-86
2023/05/27 09:24:10;;;;;;;0.20;0.20;;;22.60;99.90;;;;;;5051743;28;20021;-86
2023/05/27 09:26:37;;;;;;;0.30;0.30;;;22.80;99.90;;;;;;5055005;28;20032;-85
2023/05/27 09:29:06;;;;;;;0.60;0.60;;;22.70;99.90;;;;;;5047969;28;20025;-86
2023/05/27 09:31:41;;;;;;;0.40;0.30;;;22.50;99.90;;;;;;5035100;28;20371;-85
2023/05/27 09:34:16;;;;;;;0.43;0.30;;;22.60;99.90;;;;;;5035004;28;20401;-85
2023/05/27 09:36:47;;;;;;;0.57;0.43;;;22.60;99.90;;;;;;5054363;28;20035;-85
2023/05/27 09:39:18;;;;;;;0.57;0.57;;;22.80;99.90;;;;;;5054221;28;20021;-86
2023/05/27 09:41:50;;;;;;;0.60;0.60;;;22.90;99.90;;;;;;5053834;28;20090;-86
2023/05/27 09:44:16;;;;;;;0.68;0.50;;;23.00;99.90;;;;;;5053861;28;20029;-86
2023/05/27 09:46:45;;;;;;;1.25;0.77;;;22.90;99.90;;;;;;5053993;28;20388;-85
2023/05/27 09:49:13;;;;;;;0.00;0.00;;;23.10;99.90;;;;;;5054413;28;20504;-87
2023/05/27 09:51:41;;;;;;;0.40;0.40;;;23.30;99.90;;;;;;5052826;28;20032;-87
2023/05/27 09:54:08;;;;;;;0.52;0.50;;;23.40;99.90;;;;;;5053463;28;20440;-88
2023/05/27 09:56:35;;;;;;;1.48;1.30;;;23.50;99.90;;;;;;5053491;28;20060;-87
2023/05/27 09:59:00;;;;;;;0.85;0.43;;;23.70;99.90;;;;;;5031661;28;20053;-87
2023/05/27 10:01:28;;;;;;;0.98;0.70;;;23.60;99.90;;;;;;5034334;28;20512;-88
2023/05/27 10:03:58;;;;;;;2.92;0.50;;;23.60;99.90;;;;;;5045996;28;20108;-88
2023/05/27 10:06:25;;;;;;;0.80;0.73;;;23.50;99.90;;;;;;5035724;28;20351;-88
2023/05/27 10:08:58;;;;;;;0.63;0.63;;;23.60;99.90;;;;;;5053356;28;20485;-87
2023/05/27 10:11:30;;;;;;;1.13;0.68;;;23.60;99.90;;;;;;5052932;28;20470;-89
2023/05/27 10:13:56;;;;;;;1.00;0.85;;;23.80;99.90;;;;;;5053651;28;20029;-86
2023/05/27 10:16:22;;;;;;;0.15;0.15;;;23.80;99.90;;;;;;5035475;28;20036;-87
2023/05/27 10:18:56;;;;;;;1.25;0.50;;;23.90;99.90;;;;;;5054294;28;20033;-87
2023/05/27 10:21:23;;;;;;;0.63;0.45;;;23.70;99.90;;;;;;5052877;28;20542;-87
2023/05/27 10:24:01;;;;;;;0.55;0.40;;;23.80;99.90;;;;;;5052369;28;20052;-85
2023/05/27 10:26:39;;;;;;;0.57;0.57;;;24.00;99.90;;;;;;5050867;28;20025;-84
2023/05/27 10:29:17;;;;;;;0.20;0.20;;;24.00;99.90;;;;;;5052488;28;20067;-84
2023/05/27 10:31:47;;;;;;;0.85;0.73;;;23.90;99.90;;;;;;5051128;28;20017;-84
2023/05/27 10:34:13;;;;;;;1.35;0.47;;;23.90;99.90;;;;;;5048240;28;20576;-84
2023/05/27 10:36:38;;;;;;;1.20;0.50;;;23.90;99.90;;;;;;5044616;28;20025;-84
2023/05/27 10:39:11;;;;;;;0.85;0.85;;;24.00;99.90;;;;;;5051343;28;20481;-84
2023/05/27 10:41:43;;;;;;;0.30;0.30;;;24.10;99.90;;;;;;5039481;28;20021;-84
2023/05/27 10:44:10;;;;;;;0.98;0.63;;;24.10;99.90;;;;;;5048232;28;20082;-84
2023/05/27 10:46:43;;;;;;;0.50;0.50;;;24.20;99.90;;;;;;5052493;28;20021;-84
2023/05/27 10:49:22;;;;;;;0.63;0.63;;;24.30;99.90;;;;;;5042540;28;20040;-84
2023/05/27 10:51:48;;;;;;;0.28;0.28;;;24.30;99.90;;;;;;5052483;28;20029;-85
2023/05/27 10:54:15;;;;;;;0.65;0.47;;;24.20;99.90;;;;;;5052641;28;20048;-86
2023/05/27 10:56:51;;;;;;;1.90;0.95;;;24.10;99.90;;;;;;5034310;28;20028;-86
2023/05/27 10:59:22;;;;;;;0.65;0.65;;;24.20;99.90;;;;;;5052591;28;20080;-86
2023/05/27 11:01:55;;;;;;;0.80;0.80;;;24.20;99.90;;;;;;5047963;28;20432;-88
2023/05/27 11:04:22;;;;;;;1.17;0.90;;;24.50;99.90;;;;;;5049854;28;20108;-87
2023/05/27 11:06:58;;;;;;;0.38;0.38;;;24.40;99.90;;;;;;5046389;28;20021;-88
2023/05/27 11:09:24;;;;;;;1.35;0.55;;;24.60;99.90;;;;;;5051662;28;20021;-89
2023/05/27 11:11:49;;;;;;;0.50;0.40;;;24.80;99.90;;;;;;5051308;28;20056;-88
2023/05/27 11:14:15;;;;;;;0.55;0.55;;;25.00;99.90;;;;;;5051930;28;20044;-88
2023/05/27 11:16:41;;;;;;;2.47;1.17;;;25.00;99.90;;;;;;5053030;28;20474;-90
2023/05/27 11:19:11;;;;;;;0.32;0.30;;;25.00;99.90;;;;;;5035628;28;20049;-95
2023/05/27 11:21:44;;;;;;;0.22;0.22;;;25.00;99.90;;;;;;5052998;28;20032;-87
2023/05/27 11:24:18;;;;;;;0.40;0.40;;;25.10;99.90;;;;;;5052817;28;20029;-87
2023/05/27 11:26:47;;;;;;;0.98;0.90;;;25.20;99.90;;;;;;5052162;28;20068;-86
2023/05/27 11:29:14;;;;;;;4.70;0.88;;;25.00;99.90;;;;;;5051659;28;20021;-87
2023/05/27 11:31:41;;;;;;;0.47;0.43;;;24.70;99.90;;;;;;5051646;28;20021;-88
2023/05/27 11:34:14;;;;;;;0.55;0.55;;;25.20;99.90;;;;;;5047425;28;20485;-85
2023/05/27 11:36:40;;;;;;;1.52;0.75;;;25.50;99.90;;;;;;5046428;28;20072;-85
2023/05/27 11:39:06;;;;;;;0.45;0.45;;;25.60;99.90;;;;;;5031673;28;20029;-85
2023/05/27 11:41:32;;;;;;;0.10;0.10;;;25.50;99.90;;;;;;5049712;28;20075;-85
2023/05/27 11:44:05;;;;;;;1.42;0.73;;;25.80;99.90;;;;;;5052075;28;20021;-85
2023/05/27 11:46:37;;;;;;;1.27;0.52;;;26.00;99.90;;;;;;5051961;28;20381;-85
2023/05/27 11:49:04;;;;;;;0.60;0.57;;;25.90;99.90;;;;;;5051632;28;20071;-85
2023/05/27 11:51:31;;;;;;;2.30;0.60;;;26.00;99.90;;;;;;5052057;28;20377;-85
2023/05/27 11:54:00;;;;;;;1.20;0.63;;;26.40;99.90;;;;;;5052091;28;20107;-85
2023/05/27 11:56:28;;;;;;;1.15;0.45;;;26.40;99.90;;;;;;5052011;28;20021;-85
2023/05/27 11:58:54;;;;;;;0.52;0.43;;;26.60;99.90;;;;;;5050004;28;20051;-85
2023/05/27 12:01:20;;;;;;;0.65;0.63;;;26.40;99.90;;;;;;5032279;28;20113;-85
2023/05/27 12:03:46;;;;;;;0.30;0.30;;;26.40;99.90;;;;;;5031236;28;20022;-85
2023/05/27 12:06:11;;;;;;;0.25;0.25;;;26.20;99.90;;;;;;5032397;28;20057;-85
2023/05/27 12:08:38;;;;;;;0.40;0.40;;;26.60;99.90;;;;;;5032146;28;20415;-84
2023/05/27 12:11:04;;;;;;;0.30;0.30;;;26.70;99.90;;;;;;5031638;28;20030;-83
2023/05/27 12:13:31;;;;;;;0.70;0.70;;;27.20;99.90;;;;;;5032018;28;20088;-83
2023/05/27 12:15:57;;;;;;;0.70;0.65;;;27.30;99.90;;;;;;5031591;28;20029;-83
2023/05/27 12:18:23;;;;;;;0.52;0.40;;;27.50;99.90;;;;;;5031443;28;20021;-83
2023/05/27 12:20:49;;;;;;;0.38;0.38;;;27.50;99.90;;;;;;5032126;28;20032;-83
2023/05/27 12:23:15;;;;;;;0.63;0.63;;;27.60;99.90;;;;;;5035145;28;20026;-83
2023/05/27 12:25:40;;;;;;;0.47;0.47;;;28.00;99.90;;;;;;5035656;28;20032;-83
2023/05/27 12:28:07;;;;;;;4.55;1.08;;;28.50;99.90;;;;;;5035484;28;20386;-83
2023/05/27 12:30:34;;;;;;;0.65;0.40;;;28.60;99.90;;;;;;5035521;28;20029;-83
2023/05/27 12:33:00;;;;;;;0.40;0.32;;;29.00;99.90;;;;;;5048278;28;20025;-83
2023/05/27 12:35:26;;;;;;;0.10;0.10;;;29.10;99.90;;;;;;5055329;28;20441;-83
2023/05/27 12:37:52;;;;;;;0.22;0.22;;;29.70;99.90;;;;;;5055219;28;20025;-83
2023/05/27 12:40:18;;;;;;;0.47;0.30;;;29.70;99.90;;;;;;5054894;28;20029;-84
2023/05/27 12:42:43;;;;;;;0.28;0.28;;;30.10;99.90;;;;;;5054454;28;20404;-83
2023/05/27 12:45:09;;;;;;;0.45;0.35;;;30.10;99.90;;;;;;5054512;28;20409;-84
2023/05/27 12:47:35;;;;;;;0.50;0.50;;;30.40;99.90;;;;;;5053759;28;20021;-84